Time;durP1;ratioP1;P1;durP2;ratioP2;P2;SDS_P1;SDS_P2;PMS_P1;PMS_P2;Temp;Humidity;BMP_temperature;BMP_pressure;BME280_temperature;BME280_humidity;BME280_pressure;Samples;Min_cycle;Max_cycle;Signal;HPM_P1;HPM_P2
2021/09/01 00:03:20;;;;;;;8.80;4.72;;;13.30;99.90;;;;;;10322848;28;20103;-61
2021/09/01 00:08:22;;;;;;;8.55;4.18;;;13.30;99.90;;;;;;10331535;28;20046;-60
2021/09/01 00:13:24;;;;;;;13.18;5.57;;;13.30;99.90;;;;;;10319153;28;20145;-60
2021/09/01 00:18:25;;;;;;;8.80;5.00;;;13.40;99.90;;;;;;10328412;28;20081;-61
2021/09/01 00:23:27;;;;;;;7.28;4.47;;;13.40;99.90;;;;;;10326687;28;20112;-60
2021/09/01 00:28:29;;;;;;;8.35;4.85;;;13.30;99.90;;;;;;10327065;28;20108;-60
2021/09/01 00:33:30;;;;;;;8.52;4.45;;;13.30;99.90;;;;;;10327679;28;20104;-60
2021/09/01 00:38:32;;;;;;;9.35;4.63;;;13.20;99.90;;;;;;10312219;28;20093;-60
2021/09/01 00:43:34;;;;;;;10.23;4.93;;;13.20;99.90;;;;;;10327800;28;20100;-60
2021/09/01 00:48:35;;;;;;;10.02;5.00;;;13.10;99.90;;;;;;10325790;28;20104;-60
2021/09/01 00:53:41;;;;;;;8.40;5.18;;;13.00;99.90;;;;;;10322761;28;20487;-59
2021/09/01 00:58:43;;;;;;;12.00;6.47;;;13.00;99.90;;;;;;10323670;28;20095;-60
2021/09/01 01:03:52;;;;;;;9.45;5.25;;;12.90;99.90;;;;;;10328149;28;20132;-59
2021/09/01 01:08:54;;;;;;;11.07;4.75;;;12.80;99.90;;;;;;10317611;28;20050;-59
2021/09/01 01:13:56;;;;;;;9.00;5.03;;;12.80;99.90;;;;;;10324453;28;20116;-60
2021/09/01 01:18:59;;;;;;;8.23;4.43;;;12.70;99.90;;;;;;10332710;28;20058;-60
2021/09/01 01:24:01;;;;;;;7.82;4.53;;;12.70;99.90;;;;;;10333566;28;20128;-60
2021/09/01 01:29:07;;;;;;;9.95;5.10;;;12.60;99.90;;;;;;10333619;28;20077;-60
2021/09/01 01:34:14;;;;;;;12.48;5.97;;;12.70;99.90;;;;;;10322198;28;20146;-58
2021/09/01 01:39:16;;;;;;;8.57;6.00;;;12.70;99.90;;;;;;10318863;28;20526;-60
2021/09/01 01:44:17;;;;;;;10.00;4.47;;;12.70;99.90;;;;;;10332376;28;20100;-61
2021/09/01 01:49:19;;;;;;;8.30;4.72;;;12.60;99.90;;;;;;10331395;28;20058;-60
2021/09/01 01:54:21;;;;;;;9.75;5.53;;;12.50;99.90;;;;;;10328263;28;20069;-61
2021/09/01 01:59:22;;;;;;;11.30;5.80;;;12.40;99.90;;;;;;10333121;28;20054;-61
2021/09/01 02:04:24;;;;;;;9.63;5.65;;;12.20;99.90;;;;;;10330168;28;20862;-61
2021/09/01 02:09:25;;;;;;;11.13;6.13;;;12.20;99.90;;;;;;10334340;28;20132;-60
2021/09/01 02:14:27;;;;;;;10.05;5.88;;;12.10;99.90;;;;;;10329013;28;20069;-60
2021/09/01 02:19:29;;;;;;;12.68;6.30;;;12.10;99.90;;;;;;10330335;28;20623;-61
2021/09/01 02:24:31;;;;;;;12.57;5.82;;;12.10;99.90;;;;;;10335550;28;20054;-60
2021/09/01 02:29:32;;;;;;;13.80;6.38;;;12.00;99.90;;;;;;10326966;28;20116;-60
2021/09/01 02:34:34;;;;;;;18.35;6.10;;;11.90;99.90;;;;;;10330256;28;20050;-60
2021/09/01 02:39:36;;;;;;;12.38;6.35;;;11.90;99.90;;;;;;10312134;28;20115;-60
2021/09/01 02:44:38;;;;;;;11.20;6.05;;;11.90;99.90;;;;;;10325271;28;20054;-60
2021/09/01 02:49:39;;;;;;;11.73;6.32;;;11.90;99.90;;;;;;10333148;28;20460;-60
2021/09/01 02:54:41;;;;;;;19.70;7.05;;;11.90;99.90;;;;;;10327724;28;20108;-59
2021/09/01 02:59:42;;;;;;;9.07;5.75;;;11.80;99.90;;;;;;10332022;28;20049;-59
2021/09/01 03:04:44;;;;;;;13.55;7.05;;;11.70;99.90;;;;;;10328612;28;20108;-60
2021/09/01 03:09:46;;;;;;;11.75;6.07;;;11.70;99.90;;;;;;10329606;28;20066;-60
2021/09/01 03:14:47;;;;;;;12.38;6.28;;;11.60;99.90;;;;;;10332660;28;20132;-61
2021/09/01 03:19:49;;;;;;;11.18;5.78;;;11.60;99.90;;;;;;10329486;28;20097;-59
2021/09/01 03:24:50;;;;;;;10.30;5.93;;;11.50;99.90;;;;;;10326074;28;20085;-59
2021/09/01 03:29:52;;;;;;;9.90;5.47;;;11.40;99.90;;;;;;10330892;28;20065;-58
2021/09/01 03:34:54;;;;;;;13.77;6.15;;;11.40;99.90;;;;;;10324714;28;20113;-58
2021/09/01 03:39:56;;;;;;;9.73;5.57;;;11.30;99.90;;;;;;10328253;28;20117;-59
2021/09/01 03:44:57;;;;;;;10.43;5.68;;;11.20;99.90;;;;;;10329470;28;20066;-60
2021/09/01 03:50:00;;;;;;;11.95;6.25;;;11.20;99.90;;;;;;10324986;28;21120;-59
2021/09/01 03:55:03;;;;;;;11.75;5.57;;;11.20;99.90;;;;;;10328001;28;20373;-59
2021/09/01 04:00:08;;;;;;;11.70;5.70;;;11.30;99.90;;;;;;10321129;28;20527;-59
2021/09/01 04:05:09;;;;;;;13.02;6.15;;;11.20;99.90;;;;;;10324629;28;20046;-59
2021/09/01 04:10:11;;;;;;;12.75;6.55;;;11.20;99.90;;;;;;10324234;28;20058;-60
2021/09/01 04:15:13;;;;;;;13.35;5.40;;;11.10;99.90;;;;;;10329560;28;20167;-60
2021/09/01 04:20:14;;;;;;;6.55;4.75;;;11.20;99.90;;;;;;10330066;28;20104;-60
2021/09/01 04:25:16;;;;;;;11.75;6.15;;;11.20;99.90;;;;;;10323387;28;20066;-59
2021/09/01 04:30:18;;;;;;;10.48;5.97;;;11.10;99.90;;;;;;10310058;28;20045;-65
2021/09/01 04:35:19;;;;;;;13.35;7.07;;;11.20;99.90;;;;;;10325260;28;20101;-65
2021/09/01 04:40:21;;;;;;;9.30;5.10;;;11.10;99.90;;;;;;10315737;28;20065;-65
2021/09/01 04:45:23;;;;;;;11.65;6.05;;;11.30;99.90;;;;;;10335339;28;20054;-66
2021/09/01 04:50:24;;;;;;;15.25;6.43;;;11.30;99.90;;;;;;10332395;28;20175;-65
2021/09/01 04:55:26;;;;;;;10.25;6.00;;;11.50;99.90;;;;;;10322832;28;20100;-64
2021/09/01 05:00:28;;;;;;;9.45;5.72;;;11.60;99.90;;;;;;10335090;28;20570;-63
2021/09/01 05:05:30;;;;;;;9.70;5.50;;;11.80;99.90;;;;;;10321605;28;20619;-64
2021/09/01 05:10:32;;;;;;;16.88;6.30;;;11.90;99.90;;;;;;10330519;28;20097;-64
2021/09/01 05:15:33;;;;;;;12.57;5.18;;;12.10;99.90;;;;;;10330057;28;20050;-66
2021/09/01 05:20:39;;;;;;;12.13;5.70;;;12.30;99.90;;;;;;10318809;28;20052;-71
2021/09/01 05:26:04;;;;;;;11.98;5.82;;;12.40;99.90;;;;;;10330892;28;20077;-66
2021/09/01 05:31:07;;;;;;;11.68;5.00;;;12.60;99.90;;;;;;10328967;28;20046;-64
2021/09/01 05:36:09;;;;;;;10.65;5.97;;;12.70;99.90;;;;;;10332501;28;20054;-64
2021/09/01 05:41:12;;;;;;;9.52;5.20;;;12.90;99.90;;;;;;10332442;28;20129;-64
2021/09/01 05:46:15;;;;;;;12.98;6.28;;;13.00;99.90;;;;;;10331711;28;20050;-65
2021/09/01 05:51:17;;;;;;;10.95;5.55;;;13.20;99.90;;;;;;10330317;28;20094;-65
2021/09/01 05:56:28;;;;;;;11.23;5.72;;;13.50;99.90;;;;;;10332361;28;20431;-65
2021/09/01 06:01:35;;;;;;;8.95;5.13;;;13.80;99.90;;;;;;10333680;28;20124;-65
2021/09/01 06:06:38;;;;;;;;;;;14.10;99.90;;;;;;10334187;28;20046;-64
2021/09/01 06:11:43;;;;;;;14.70;5.50;;;14.40;99.90;;;;;;10333423;28;19987;-65
2021/09/01 06:16:45;;;;;;;12.07;4.95;;;14.60;99.90;;;;;;10332759;28;20054;-65
2021/09/01 06:21:47;;;;;;;11.80;4.50;;;14.80;99.90;;;;;;10331145;28;20073;-65
2021/09/01 06:26:48;;;;;;;12.20;5.45;;;15.00;99.90;;;;;;10312150;28;20045;-65
2021/09/01 06:31:50;;;;;;;11.35;5.28;;;15.10;99.90;;;;;;10328521;28;20546;-64
2021/09/01 06:36:52;;;;;;;10.13;5.05;;;15.20;99.90;;;;;;10330691;28;20690;-64
2021/09/01 06:41:53;;;;;;;10.73;4.32;;;15.30;99.90;;;;;;10331168;28;20101;-64
2021/09/01 06:46:55;;;;;;;13.60;5.60;;;15.40;99.90;;;;;;10335566;28;20733;-63
2021/09/01 06:51:57;;;;;;;9.43;4.35;;;15.50;99.90;;;;;;10330616;28;20081;-64
2021/09/01 06:56:59;;;;;;;10.48;4.75;;;15.50;99.90;;;;;;10329349;28;20050;-64
2021/09/01 07:02:00;;;;;;;11.45;4.53;;;15.50;99.90;;;;;;10331568;28;20473;-63
2021/09/01 07:07:03;;;;;;;9.80;4.25;;;15.40;99.90;;;;;;10330079;28;20100;-65
2021/09/01 07:12:04;;;;;;;10.73;4.03;;;15.50;99.90;;;;;;10331279;28;20053;-65
2021/09/01 07:17:06;;;;;;;13.23;4.65;;;15.50;99.90;;;;;;10331598;28;20042;-65
2021/09/01 07:22:08;;;;;;;9.98;4.68;;;15.60;99.90;;;;;;10315048;28;20301;-64
2021/09/01 07:27:10;;;;;;;14.85;4.60;;;15.70;99.90;;;;;;10333564;28;20054;-63
2021/09/01 07:32:11;;;;;;;8.75;4.20;;;15.80;99.90;;;;;;10326509;28;20057;-64
2021/09/01 07:37:13;;;;;;;9.57;4.72;;;16.00;99.90;;;;;;10328236;28;20116;-64
2021/09/01 07:42:15;;;;;;;15.55;4.90;;;16.20;99.90;;;;;;10330679;28;20092;-64
2021/09/01 07:47:17;;;;;;;8.25;3.80;;;16.30;99.90;;;;;;10326383;28;20366;-64
2021/09/01 07:52:19;;;;;;;9.48;4.10;;;16.50;99.90;;;;;;10329514;28;20046;-64
2021/09/01 07:57:20;;;;;;;7.18;3.80;;;16.70;99.90;;;;;;10327625;28;20645;-64
2021/09/01 08:02:22;;;;;;;7.10;3.90;;;17.10;99.90;;;;;;10326286;28;20050;-63
2021/09/01 08:07:24;;;;;;;11.15;3.85;;;17.30;99.90;;;;;;10332747;28;20045;-64
2021/09/01 08:12:26;;;;;;;11.20;3.72;;;17.60;99.90;;;;;;10327740;28;20053;-64
2021/09/01 08:17:27;;;;;;;7.03;3.22;;;17.90;99.90;;;;;;10325143;28;20054;-64
2021/09/01 08:22:29;;;;;;;11.10;3.60;;;18.00;99.90;;;;;;10311282;28;20556;-64
2021/09/01 08:27:31;;;;;;;10.25;4.85;;;18.20;99.90;;;;;;10324472;28;20054;-64
2021/09/01 08:32:33;;;;;;;8.88;3.20;;;18.20;99.90;;;;;;10328057;28;20054;-64
2021/09/01 08:37:34;;;;;;;11.90;3.30;;;18.20;99.90;;;;;;10312551;28;20046;-64
2021/09/01 08:42:37;;;;;;;9.07;3.67;;;18.20;99.90;;;;;;10325594;28;20045;-64
2021/09/01 08:47:40;;;;;;;10.38;3.97;;;18.20;99.90;;;;;;10321847;28;20124;-64
2021/09/01 08:52:41;;;;;;;7.82;3.88;;;18.20;99.90;;;;;;10322476;28;20082;-64
2021/09/01 08:57:43;;;;;;;7.38;3.15;;;18.40;99.90;;;;;;10320855;28;20463;-63
2021/09/01 09:02:57;;;;;;;9.23;4.47;;;18.60;99.90;;;;;;10318139;28;20444;-64
2021/09/01 09:07:59;;;;;;;10.52;3.38;;;18.60;99.90;;;;;;10318520;28;20133;-64
2021/09/01 09:13:04;;;;;;;7.25;3.33;;;18.80;99.90;;;;;;10321239;28;20078;-64
2021/09/01 09:18:29;;;;;;;9.35;3.83;;;19.00;99.90;;;;;;10321455;28;20109;-64
2021/09/01 09:23:31;;;;;;;6.82;3.00;;;19.30;99.90;;;;;;10322390;28;20065;-64
2021/09/01 09:28:33;;;;;;;7.97;3.78;;;19.10;99.90;;;;;;10329761;28;20131;-65
2021/09/01 09:33:40;;;;;;;10.50;3.92;;;19.30;99.90;;;;;;10330392;28;20058;-64
2021/09/01 09:38:45;;;;;;;5.78;3.42;;;19.00;99.90;;;;;;10332681;28;20046;-64
2021/09/01 09:43:48;;;;;;;7.18;2.90;;;19.00;99.90;;;;;;10326977;28;20120;-65
2021/09/01 09:48:51;;;;;;;6.63;3.03;;;19.00;99.90;;;;;;10330235;28;20066;-65
2021/09/01 09:53:52;;;;;;;8.57;3.30;;;19.00;99.90;;;;;;10333527;28;20073;-64
2021/09/01 09:58:56;;;;;;;5.50;2.60;;;19.30;99.90;;;;;;10333774;28;20057;-64
2021/09/01 10:04:00;;;;;;;9.50;2.88;;;19.40;99.90;;;;;;10326808;28;20624;-64
2021/09/01 10:09:04;;;;;;;9.80;3.17;;;19.40;99.90;;;;;;10333073;28;20049;-64
2021/09/01 10:14:08;;;;;;;7.47;3.10;;;19.80;99.90;;;;;;10329521;28;20127;-64
2021/09/01 10:19:16;;;;;;;7.75;2.88;;;19.90;99.90;;;;;;10326025;28;20092;-64
2021/09/01 10:24:30;;;;;;;7.53;3.60;;;20.00;99.90;;;;;;10330041;28;20097;-64
2021/09/01 10:29:41;;;;;;;8.77;3.47;;;20.10;99.90;;;;;;10339333;28;20077;-64
2021/09/01 10:34:43;;;;;;;8.93;3.35;;;20.50;99.90;;;;;;10299521;28;20361;-64
2021/09/01 10:39:45;;;;;;;7.57;3.55;;;20.80;99.90;;;;;;10326304;28;20578;-65
2021/09/01 10:44:48;;;;;;;8.57;3.67;;;20.90;99.90;;;;;;10331495;28;20050;-62
2021/09/01 10:49:56;;;;;;;7.10;2.88;;;21.10;99.90;;;;;;10328071;28;20103;-62
2021/09/01 10:54:59;;;;;;;6.78;2.67;;;21.30;99.70;;;;;;10330671;28;20057;-62
2021/09/01 11:00:15;;;;;;;6.05;2.40;;;21.30;99.40;;;;;;10327046;28;20500;-62
2021/09/01 11:36:34;;;;;;;3.42;2.03;;;20.80;96.60;;;;;;10323802;28;20038;-70
2021/09/01 11:41:37;;;;;;;6.70;2.35;;;21.00;95.70;;;;;;10324098;28;20056;-67
2021/09/01 11:46:39;;;;;;;6.70;2.38;;;21.40;97.50;;;;;;10331234;28;20047;-67
2021/09/01 11:51:44;;;;;;;5.07;2.30;;;21.60;96.50;;;;;;10324273;28;20108;-65
2021/09/01 11:56:46;;;;;;;4.90;2.35;;;21.50;95.80;;;;;;10296949;28;20101;-64
2021/09/01 12:01:56;;;;;;;5.70;1.90;;;21.30;95.30;;;;;;10330565;28;20054;-64
2021/09/01 12:06:58;;;;;;;4.28;1.73;;;21.70;95.90;;;;;;10325242;28;20050;-64
2021/09/01 12:12:02;;;;;;;5.57;1.95;;;21.90;93.50;;;;;;10328626;28;20508;-64
2021/09/01 12:17:21;;;;;;;4.70;1.90;;;21.80;95.20;;;;;;10326306;28;20049;-64
2021/09/01 12:22:41;;;;;;;6.25;2.35;;;21.90;92.80;;;;;;10324348;28;20046;-64
2021/09/01 12:28:06;;;;;;;7.50;3.17;;;22.20;92.10;;;;;;10324185;28;20549;-65
2021/09/01 12:33:18;;;;;;;8.35;2.10;;;22.30;91.80;;;;;;10324403;28;20074;-65
2021/09/01 12:38:26;;;;;;;6.13;2.13;;;22.30;90.10;;;;;;10327101;28;20111;-65
2021/09/01 12:43:38;;;;;;;5.22;1.67;;;22.10;91.80;;;;;;10322514;28;20065;-62
2021/09/01 12:48:42;;;;;;;8.70;2.15;;;22.00;92.60;;;;;;10323140;28;20046;-63
2021/09/01 12:53:44;;;;;;;8.45;1.70;;;22.40;91.80;;;;;;10322534;28;20128;-63
2021/09/01 12:58:45;;;;;;;6.57;2.08;;;22.50;90.90;;;;;;10326106;28;20100;-64
2021/09/01 13:03:47;;;;;;;3.70;1.58;;;22.50;90.20;;;;;;10335200;28;20151;-64
2021/09/01 13:08:48;;;;;;;4.75;1.63;;;22.60;90.20;;;;;;10334230;28;20081;-65
2021/09/01 13:13:50;;;;;;;4.15;1.52;;;22.70;90.30;;;;;;10335442;28;20500;-66
2021/09/01 13:18:52;;;;;;;4.03;1.80;;;22.80;89.10;;;;;;10336783;28;20440;-65
2021/09/01 13:23:53;;;;;;;3.13;1.33;;;22.80;86.00;;;;;;10331754;28;20085;-72
2021/09/01 13:28:55;;;;;;;9.52;1.70;;;23.10;88.20;;;;;;10334364;28;20050;-70
2021/09/01 13:33:59;;;;;;;4.15;1.40;;;23.40;86.20;;;;;;10320045;28;20089;-73
2021/09/01 13:39:01;;;;;;;4.30;1.48;;;23.10;87.00;;;;;;10335367;28;20053;-69
2021/09/01 13:44:04;;;;;;;5.72;1.10;;;22.70;87.20;;;;;;10334926;28;20053;-70
2021/09/01 13:49:07;;;;;;;5.75;1.88;;;22.80;86.90;;;;;;10332280;28;20385;-68
2021/09/01 13:54:09;;;;;;;6.53;1.83;;;23.10;86.70;;;;;;10316337;28;20077;-70
2021/09/01 13:59:16;;;;;;;4.22;1.92;;;23.20;85.70;;;;;;10334854;28;20112;-73
2021/09/01 14:04:17;;;;;;;6.35;1.63;;;23.50;84.60;;;;;;10332432;28;20140;-72
2021/09/01 14:09:19;;;;;;;3.70;1.40;;;23.30;84.00;;;;;;10333857;28;20062;-70
2021/09/01 14:14:21;;;;;;;8.10;1.65;;;24.00;80.30;;;;;;10320223;28;20054;-70
2021/09/01 14:19:23;;;;;;;4.43;1.35;;;25.00;80.20;;;;;;10339467;28;20050;-71
2021/09/01 14:24:24;;;;;;;3.83;1.20;;;25.80;78.50;;;;;;10308319;28;20441;-71
2021/09/01 14:29:26;;;;;;;6.10;1.70;;;25.60;75.00;;;;;;10333233;28;20054;-70
2021/09/01 14:34:28;;;;;;;3.88;0.90;;;25.70;71.30;;;;;;10334014;28;21870;-70
2021/09/01 14:39:30;;;;;;;3.50;1.10;;;25.80;71.50;;;;;;10327729;28;20052;-70
2021/09/01 14:44:31;;;;;;;6.40;1.52;;;25.40;70.90;;;;;;10331696;28;20046;-70
2021/09/01 14:49:33;;;;;;;4.03;0.95;;;26.00;70.50;;;;;;10319320;28;20046;-70
2021/09/01 14:54:35;;;;;;;3.60;1.33;;;26.00;70.60;;;;;;10329215;28;20550;-68
2021/09/01 14:59:36;;;;;;;2.55;1.15;;;25.80;70.80;;;;;;10331783;28;20117;-67
2021/09/01 15:04:41;;;;;;;4.82;1.42;;;26.00;71.30;;;;;;10323288;28;20050;-65
2021/09/01 15:09:42;;;;;;;5.75;1.27;;;25.90;70.70;;;;;;10324455;28;20062;-67
2021/09/01 15:14:44;;;;;;;3.20;1.25;;;26.10;71.30;;;;;;10327431;28;20046;-66
2021/09/01 15:19:46;;;;;;;2.95;1.48;;;26.20;69.90;;;;;;10325759;28;20088;-66
2021/09/01 15:24:48;;;;;;;3.95;2.65;;;26.10;67.60;;;;;;10312147;28;20074;-68
2021/09/01 15:29:50;;;;;;;3.33;0.98;;;26.00;69.10;;;;;;10308204;28;20104;-66
2021/09/01 15:34:52;;;;;;;2.80;1.27;;;25.70;71.00;;;;;;10325361;28;20081;-65
2021/09/01 15:39:54;;;;;;;6.30;1.38;;;24.70;70.10;;;;;;10326321;28;20046;-65
2021/09/01 15:44:56;;;;;;;2.83;1.20;;;24.50;71.60;;;;;;10307587;28;20049;-65
2021/09/01 15:50:00;;;;;;;5.25;1.23;;;24.20;73.00;;;;;;10323346;28;20081;-67
2021/09/01 15:55:03;;;;;;;5.70;1.17;;;24.10;73.20;;;;;;10319190;28;20065;-66
2021/09/01 16:00:09;;;;;;;4.35;1.13;;;24.00;73.90;;;;;;10321178;28;20050;-65
2021/09/01 16:05:11;;;;;;;4.10;1.88;;;23.90;72.50;;;;;;10322636;28;20088;-65
2021/09/01 16:10:13;;;;;;;5.40;1.27;;;23.70;73.80;;;;;;10322367;28;20057;-65
2021/09/01 16:15:17;;;;;;;4.07;1.30;;;23.50;74.50;;;;;;10323673;28;20049;-65
2021/09/01 16:20:27;;;;;;;3.55;1.70;;;23.20;74.70;;;;;;10323195;28;20120;-67
2021/09/01 16:25:30;;;;;;;2.45;1.35;;;23.20;76.60;;;;;;10322217;28;20619;-68
2021/09/01 16:30:33;;;;;;;6.95;1.70;;;23.20;76.90;;;;;;10296954;28;20053;-66
2021/09/01 16:35:35;;;;;;;6.22;1.30;;;23.00;76.00;;;;;;10322933;28;20112;-65
2021/09/01 16:40:41;;;;;;;2.88;1.70;;;22.50;76.70;;;;;;10307102;28;20069;-65
2021/09/01 16:45:43;;;;;;;4.78;1.77;;;22.40;77.90;;;;;;10323607;28;20112;-66
2021/09/01 16:50:50;;;;;;;5.07;1.30;;;22.30;78.00;;;;;;10321283;28;20049;-66
2021/09/01 16:55:57;;;;;;;4.53;1.40;;;22.00;78.70;;;;;;10315005;28;20144;-65
2021/09/01 17:00:59;;;;;;;4.53;1.88;;;21.70;78.60;;;;;;10312202;28;20054;-66
2021/09/01 17:06:03;;;;;;;1.77;1.10;;;21.50;79.20;;;;;;10323432;28;20157;-64
2021/09/01 17:11:06;;;;;;;3.92;1.48;;;21.30;79.50;;;;;;10325479;28;20571;-64
2021/09/01 17:16:08;;;;;;;7.55;2.28;;;21.20;80.90;;;;;;10324000;28;20621;-65
2021/09/01 17:21:10;;;;;;;7.90;2.33;;;21.10;81.10;;;;;;10329916;28;20046;-66
2021/09/01 17:26:12;;;;;;;4.40;1.30;;;20.90;81.50;;;;;;10319835;28;20174;-65
2021/09/01 17:31:20;;;;;;;4.57;1.67;;;20.70;83.20;;;;;;10329943;28;20101;-66
2021/09/01 17:36:24;;;;;;;4.13;1.63;;;20.50;84.70;;;;;;10327023;28;20527;-65
2021/09/01 17:41:28;;;;;;;5.85;1.63;;;20.30;86.10;;;;;;10325123;28;20085;-64
2021/09/01 17:46:30;;;;;;;5.03;1.58;;;20.10;86.90;;;;;;10331373;28;20139;-65
2021/09/01 17:51:33;;;;;;;7.05;1.30;;;19.90;88.30;;;;;;10332309;28;20057;-66
2021/09/01 17:56:35;;;;;;;5.50;1.25;;;19.80;88.80;;;;;;10333657;28;20083;-66
2021/09/01 18:01:37;;;;;;;3.88;1.63;;;19.60;90.10;;;;;;10325612;28;20199;-65
2021/09/01 18:06:40;;;;;;;4.43;1.42;;;19.40;90.80;;;;;;10330714;28;20046;-65
2021/09/01 18:11:41;;;;;;;6.30;1.83;;;19.20;91.10;;;;;;10331068;28;20049;-67
2021/09/01 18:16:44;;;;;;;6.20;2.40;;;19.00;92.00;;;;;;10328586;28;20557;-68
2021/09/01 18:21:45;;;;;;;4.63;1.52;;;18.80;92.50;;;;;;10328687;28;20077;-67
2021/09/01 18:26:47;;;;;;;3.45;1.42;;;18.60;92.90;;;;;;10329444;28;20073;-67
2021/09/01 18:31:49;;;;;;;4.80;2.13;;;18.40;93.20;;;;;;10301855;28;21347;-67
2021/09/01 18:36:51;;;;;;;5.00;2.00;;;18.20;93.60;;;;;;10328172;28;20054;-67
2021/09/01 18:41:58;;;;;;;2.83;1.52;;;18.10;94.10;;;;;;10297048;28;20109;-60
2021/09/01 18:47:00;;;;;;;5.10;2.08;;;17.90;94.50;;;;;;10326965;28;20054;-61
2021/09/01 18:52:02;;;;;;;4.35;2.63;;;17.80;95.30;;;;;;10327218;28;20646;-60
2021/09/01 18:57:05;;;;;;;5.68;2.30;;;17.60;95.50;;;;;;10329154;28;20077;-60
2021/09/01 19:02:12;;;;;;;3.72;1.80;;;17.40;96.10;;;;;;10323957;28;20045;-60
2021/09/01 19:07:34;;;;;;;7.28;2.30;;;17.30;96.80;;;;;;10325412;28;20093;-60
2021/09/01 19:12:37;;;;;;;6.03;2.28;;;17.10;97.30;;;;;;10328641;28;20097;-60
2021/09/01 19:17:39;;;;;;;5.53;2.58;;;17.00;98.20;;;;;;10328636;28;20070;-60
2021/09/01 19:22:43;;;;;;;6.97;2.20;;;16.80;98.90;;;;;;10306719;28;20370;-60
2021/09/01 19:27:45;;;;;;;8.63;3.17;;;16.70;99.20;;;;;;10332511;28;20050;-60
2021/09/01 19:32:49;;;;;;;7.18;2.50;;;16.60;99.80;;;;;;10330583;28;20540;-60
2021/09/01 19:37:53;;;;;;;6.57;2.58;;;16.50;99.90;;;;;;10328215;28;20103;-60
2021/09/01 19:42:55;;;;;;;8.10;2.83;;;16.30;99.90;;;;;;10329172;28;20447;-60
2021/09/01 19:47:57;;;;;;;4.43;2.72;;;16.20;99.90;;;;;;10324031;28;20073;-60
2021/09/01 19:53:01;;;;;;;5.72;2.50;;;16.20;99.90;;;;;;10322032;28;20077;-60
2021/09/01 19:58:03;;;;;;;5.05;2.38;;;16.10;99.90;;;;;;10323000;28;20046;-61
2021/09/01 20:03:06;;;;;;;6.90;2.15;;;16.00;99.90;;;;;;10329419;28;20464;-60
2021/09/01 20:08:08;;;;;;;6.47;2.88;;;16.00;99.90;;;;;;10328479;28;20666;-60
2021/09/01 20:13:10;;;;;;;6.30;2.45;;;15.90;99.90;;;;;;10322491;28;20513;-60
2021/09/01 20:18:13;;;;;;;7.38;2.20;;;15.80;99.90;;;;;;10329335;28;20120;-60
2021/09/01 20:23:15;;;;;;;5.65;2.33;;;15.70;99.90;;;;;;10328585;28;20089;-60
2021/09/01 20:28:16;;;;;;;11.00;2.58;;;15.60;99.90;;;;;;10325230;28;20129;-60
2021/09/01 20:33:18;;;;;;;7.15;2.63;;;15.60;99.90;;;;;;10311689;28;20054;-60
2021/09/01 20:38:20;;;;;;;10.23;3.33;;;15.50;99.90;;;;;;10325856;28;20054;-60
2021/09/01 20:43:23;;;;;;;5.88;2.72;;;15.40;99.90;;;;;;10308765;28;20046;-60
2021/09/01 20:48:30;;;;;;;9.35;2.70;;;15.30;99.90;;;;;;10326767;28;20062;-60
2021/09/01 20:53:32;;;;;;;8.50;3.13;;;15.30;99.90;;;;;;10322619;28;20085;-60
2021/09/01 20:58:34;;;;;;;5.50;3.00;;;15.20;99.90;;;;;;10324194;28;20176;-60
2021/09/01 21:03:37;;;;;;;5.82;2.13;;;15.20;99.90;;;;;;10304807;28;20042;-60
2021/09/01 21:08:39;;;;;;;6.40;2.63;;;15.10;99.90;;;;;;10322791;28;20153;-61
2021/09/01 21:13:41;;;;;;;7.28;2.65;;;15.00;99.90;;;;;;10324437;28;20046;-60
2021/09/01 21:18:48;;;;;;;10.93;2.95;;;14.90;99.90;;;;;;10320667;28;20141;-60
2021/09/01 21:23:52;;;;;;;7.68;2.88;;;14.90;99.90;;;;;;10334111;28;20424;-60
2021/09/01 21:28:58;;;;;;;8.93;2.85;;;14.80;99.90;;;;;;10331086;28;20138;-59
2021/09/01 21:34:02;;;;;;;6.97;2.78;;;14.70;99.90;;;;;;10335918;28;20038;-60
2021/09/01 21:39:04;;;;;;;6.03;2.88;;;14.60;99.90;;;;;;10333980;28;20052;-60
2021/09/01 21:44:08;;;;;;;8.73;3.17;;;14.60;99.90;;;;;;10327330;28;20054;-59
2021/09/01 21:49:10;;;;;;;9.35;3.33;;;14.50;99.90;;;;;;10329994;28;20069;-60
2021/09/01 21:54:12;;;;;;;10.10;2.67;;;14.40;99.90;;;;;;10330323;28;20073;-61
2021/09/01 21:59:13;;;;;;;8.90;2.75;;;14.30;99.90;;;;;;10326652;28;20365;-59
2021/09/01 22:04:17;;;;;;;4.78;2.45;;;14.20;99.90;;;;;;10328436;28;20058;-60
2021/09/01 22:09:19;;;;;;;4.90;2.85;;;14.20;99.90;;;;;;10316214;28;20042;-60
2021/09/01 22:14:20;;;;;;;6.80;2.60;;;14.00;99.90;;;;;;10316984;28;20066;-59
2021/09/01 22:19:22;;;;;;;9.20;2.88;;;14.00;99.90;;;;;;10328748;28;20053;-60
2021/09/01 22:24:24;;;;;;;7.07;2.85;;;13.90;99.90;;;;;;10309889;28;20089;-60
2021/09/01 22:29:26;;;;;;;5.50;2.33;;;13.80;99.90;;;;;;10331764;28;20127;-60
2021/09/01 22:34:27;;;;;;;6.15;2.33;;;13.70;99.90;;;;;;10329225;28;20058;-60
2021/09/01 22:39:29;;;;;;;7.20;2.90;;;13.70;99.90;;;;;;10330351;28;20054;-60
2021/09/01 22:44:30;;;;;;;9.13;2.38;;;13.60;99.90;;;;;;10317368;28;20046;-60
2021/09/01 22:49:32;;;;;;;5.28;3.00;;;13.60;99.90;;;;;;10324569;28;20109;-60
2021/09/01 22:54:34;;;;;;;5.50;3.05;;;13.50;99.90;;;;;;10331176;28;20042;-60
2021/09/01 22:59:35;;;;;;;5.65;3.22;;;13.40;99.90;;;;;;10332625;28;20105;-60
2021/09/01 23:04:37;;;;;;;7.32;3.08;;;13.30;99.90;;;;;;10327886;28;20054;-60
2021/09/01 23:09:39;;;;;;;5.43;2.88;;;13.20;99.90;;;;;;10332209;28;20088;-60
2021/09/01 23:14:40;;;;;;;8.13;3.33;;;13.10;99.90;;;;;;10327085;28;20534;-60
2021/09/01 23:19:42;;;;;;;4.88;3.08;;;13.00;99.90;;;;;;10313483;28;20058;-60
2021/09/01 23:24:44;;;;;;;9.13;3.28;;;13.00;99.90;;;;;;10328485;28;20112;-60
2021/09/01 23:29:45;;;;;;;8.82;3.40;;;12.90;99.90;;;;;;10321672;28;20073;-60
2021/09/01 23:34:47;;;;;;;6.72;3.72;;;12.70;99.90;;;;;;10327178;28;20141;-60
2021/09/01 23:39:49;;;;;;;10.88;3.53;;;12.70;99.90;;;;;;10333880;28;20070;-60
2021/09/01 23:44:50;;;;;;;6.40;3.17;;;12.60;99.90;;;;;;10326060;28;20508;-60
2021/09/01 23:49:52;;;;;;;8.40;3.97;;;12.60;99.90;;;;;;10330260;28;20046;-60
2021/09/01 23:54:54;;;;;;;8.73;3.95;;;12.60;99.90;;;;;;10322987;28;20058;-60
2021/09/01 23:59:55;;;;;;;5.10;3.00;;;12.50;99.90;;;;;;10327927;28;20050;-60
